sensor_id;sensor_type;location;lat;lon;timestamp;P1;durP1;ratioP1;P2;durP2;ratioP2
78005;SDS011;67211;42.146;24.756;2023-04-03T00:01:00;3.03;;;2.17;;
78005;SDS011;67211;42.146;24.756;2023-04-03T00:03:25;3.30;;;2.15;;
78005;SDS011;67211;42.146;24.756;2023-04-03T00:05:51;3.30;;;2.28;;
78005;SDS011;67211;42.146;24.756;2023-04-03T00:08:16;2.70;;;1.92;;
78005;SDS011;67211;42.146;24.756;2023-04-03T00:10:41;2.90;;;2.15;;
78005;SDS011;67211;42.146;24.756;2023-04-03T00:13:07;2.88;;;2.00;;
78005;SDS011;67211;42.146;24.756;2023-04-03T00:15:34;2.72;;;1.83;;
78005;SDS011;67211;42.146;24.756;2023-04-03T00:18:00;5.65;;;2.33;;
78005;SDS011;67211;42.146;24.756;2023-04-03T00:20:26;2.80;;;2.13;;
78005;SDS011;67211;42.146;24.756;2023-04-03T00:22:52;4.60;;;2.38;;
78005;SDS011;67211;42.146;24.756;2023-04-03T00:25:18;3.40;;;2.15;;
78005;SDS011;67211;42.146;24.756;2023-04-03T00:27:45;2.17;;;1.30;;
78005;SDS011;67211;42.146;24.756;2023-04-03T00:30:12;3.53;;;1.30;;
78005;SDS011;67211;42.146;24.756;2023-04-03T00:32:39;3.85;;;2.03;;
78005;SDS011;67211;42.146;24.756;2023-04-03T00:35:05;2.80;;;1.13;;
78005;SDS011;67211;42.146;24.756;2023-04-03T00:37:30;4.47;;;2.70;;
78005;SDS011;67211;42.146;24.756;2023-04-03T00:39:56;5.20;;;3.65;;
78005;SDS011;67211;42.146;24.756;2023-04-03T00:42:21;8.00;;;5.10;;
78005;SDS011;67211;42.146;24.756;2023-04-03T00:47:13;8.13;;;4.18;;
78005;SDS011;67211;42.146;24.756;2023-04-03T00:49:41;7.13;;;4.57;;
78005;SDS011;67211;42.146;24.756;2023-04-03T00:52:08;5.72;;;3.83;;
78005;SDS011;67211;42.146;24.756;2023-04-03T00:54:37;6.97;;;3.95;;
78005;SDS011;67211;42.146;24.756;2023-04-03T00:57:03;3.75;;;2.70;;
78005;SDS011;67211;42.146;24.756;2023-04-03T00:59:31;4.10;;;2.58;;
78005;SDS011;67211;42.146;24.756;2023-04-03T01:01:59;3.50;;;2.58;;
78005;SDS011;67211;42.146;24.756;2023-04-03T01:04:43;2.90;;;2.30;;
78005;SDS011;67211;42.146;24.756;2023-04-03T01:09:40;6.30;;;3.25;;
78005;SDS011;67211;42.146;24.756;2023-04-03T01:12:14;14.50;;;5.45;;
78005;SDS011;67211;42.146;24.756;2023-04-03T01:14:45;16.83;;;5.95;;
78005;SDS011;67211;42.146;24.756;2023-04-03T01:22:54;4.95;;;2.92;;
78005;SDS011;67211;42.146;24.756;2023-04-03T01:25:22;5.00;;;2.90;;
78005;SDS011;67211;42.146;24.756;2023-04-03T01:27:47;4.05;;;3.40;;
78005;SDS011;67211;42.146;24.756;2023-04-03T01:30:13;4.18;;;2.83;;
78005;SDS011;67211;42.146;24.756;2023-04-03T01:32:42;8.70;;;3.67;;
78005;SDS011;67211;42.146;24.756;2023-04-03T01:35:08;7.22;;;4.03;;
78005;SDS011;67211;42.146;24.756;2023-04-03T01:37:35;6.63;;;2.80;;
78005;SDS011;67211;42.146;24.756;2023-04-03T01:40:00;9.65;;;3.25;;
78005;SDS011;67211;42.146;24.756;2023-04-03T01:42:26;6.93;;;2.90;;
78005;SDS011;67211;42.146;24.756;2023-04-03T01:44:51;4.80;;;3.30;;
78005;SDS011;67211;42.146;24.756;2023-04-03T01:47:17;4.50;;;2.67;;
78005;SDS011;67211;42.146;24.756;2023-04-03T01:49:42;4.15;;;2.63;;
78005;SDS011;67211;42.146;24.756;2023-04-03T01:52:08;3.22;;;2.28;;
78005;SDS011;67211;42.146;24.756;2023-04-03T01:54:33;3.28;;;2.88;;
78005;SDS011;67211;42.146;24.756;2023-04-03T01:56:59;5.65;;;3.05;;
78005;SDS011;67211;42.146;24.756;2023-04-03T01:59:24;4.20;;;2.50;;
78005;SDS011;67211;42.146;24.756;2023-04-03T02:01:50;3.38;;;2.65;;
78005;SDS011;67211;42.146;24.756;2023-04-03T02:04:15;4.10;;;2.85;;
78005;SDS011;67211;42.146;24.756;2023-04-03T02:06:41;5.10;;;2.55;;
78005;SDS011;67211;42.146;24.756;2023-04-03T02:09:06;4.18;;;3.20;;
78005;SDS011;67211;42.146;24.756;2023-04-03T02:11:32;5.70;;;4.40;;
78005;SDS011;67211;42.146;24.756;2023-04-03T02:13:57;5.40;;;2.40;;
78005;SDS011;67211;42.146;24.756;2023-04-03T02:16:23;4.18;;;3.47;;
78005;SDS011;67211;42.146;24.756;2023-04-03T02:18:48;6.10;;;3.58;;
78005;SDS011;67211;42.146;24.756;2023-04-03T02:21:14;6.38;;;3.38;;
78005;SDS011;67211;42.146;24.756;2023-04-03T02:23:40;4.38;;;3.30;;
78005;SDS011;67211;42.146;24.756;2023-04-03T02:26:07;4.55;;;3.10;;
78005;SDS011;67211;42.146;24.756;2023-04-03T02:28:34;5.50;;;3.92;;
78005;SDS011;67211;42.146;24.756;2023-04-03T02:31:00;3.90;;;3.22;;
78005;SDS011;67211;42.146;24.756;2023-04-03T02:33:25;6.00;;;3.20;;
78005;SDS011;67211;42.146;24.756;2023-04-03T02:35:54;4.82;;;3.45;;
78005;SDS011;67211;42.146;24.756;2023-04-03T02:38:20;5.90;;;3.38;;
78005;SDS011;67211;42.146;24.756;2023-04-03T02:40:45;3.95;;;3.13;;
78005;SDS011;67211;42.146;24.756;2023-04-03T02:43:11;4.30;;;2.88;;
78005;SDS011;67211;42.146;24.756;2023-04-03T02:45:36;4.35;;;3.17;;
78005;SDS011;67211;42.146;24.756;2023-04-03T02:48:02;5.18;;;3.45;;
78005;SDS011;67211;42.146;24.756;2023-04-03T02:50:27;4.45;;;3.15;;
78005;SDS011;67211;42.146;24.756;2023-04-03T02:52:53;7.70;;;4.75;;
78005;SDS011;67211;42.146;24.756;2023-04-03T02:55:18;5.32;;;4.55;;
78005;SDS011;67211;42.146;24.756;2023-04-03T02:57:44;5.43;;;3.85;;
78005;SDS011;67211;42.146;24.756;2023-04-03T03:00:09;4.18;;;3.25;;
78005;SDS011;67211;42.146;24.756;2023-04-03T03:02:35;7.20;;;3.92;;
78005;SDS011;67211;42.146;24.756;2023-04-03T03:05:00;5.50;;;4.22;;
78005;SDS011;67211;42.146;24.756;2023-04-03T03:07:29;6.13;;;5.45;;
78005;SDS011;67211;42.146;24.756;2023-04-03T03:09:54;5.75;;;4.72;;
78005;SDS011;67211;42.146;24.756;2023-04-03T03:12:19;13.93;;;10.25;;
78005;SDS011;67211;42.146;24.756;2023-04-03T03:14:47;6.72;;;5.03;;
78005;SDS011;67211;42.146;24.756;2023-04-03T03:17:12;7.38;;;6.05;;
78005;SDS011;67211;42.146;24.756;2023-04-03T03:19:38;5.43;;;4.63;;
78005;SDS011;67211;42.146;24.756;2023-04-03T03:22:03;5.45;;;3.97;;
78005;SDS011;67211;42.146;24.756;2023-04-03T03:24:29;4.15;;;3.45;;
78005;SDS011;67211;42.146;24.756;2023-04-03T03:26:54;4.07;;;3.65;;
78005;SDS011;67211;42.146;24.756;2023-04-03T03:29:20;5.35;;;4.85;;
78005;SDS011;67211;42.146;24.756;2023-04-03T03:31:45;4.85;;;4.35;;
78005;SDS011;67211;42.146;24.756;2023-04-03T03:34:11;7.07;;;5.63;;
78005;SDS011;67211;42.146;24.756;2023-04-03T03:36:36;8.02;;;4.63;;
78005;SDS011;67211;42.146;24.756;2023-04-03T03:39:02;8.57;;;5.03;;
78005;SDS011;67211;42.146;24.756;2023-04-03T03:41:28;5.82;;;5.05;;
78005;SDS011;67211;42.146;24.756;2023-04-03T03:43:53;8.75;;;5.07;;
78005;SDS011;67211;42.146;24.756;2023-04-03T03:46:19;10.10;;;4.90;;
78005;SDS011;67211;42.146;24.756;2023-04-03T03:48:44;7.53;;;4.53;;
78005;SDS011;67211;42.146;24.756;2023-04-03T03:51:09;7.32;;;3.60;;
78005;SDS011;67211;42.146;24.756;2023-04-03T03:53:35;5.78;;;3.47;;
78005;SDS011;67211;42.146;24.756;2023-04-03T03:56:01;6.55;;;4.65;;
78005;SDS011;67211;42.146;24.756;2023-04-03T03:58:26;5.68;;;4.68;;
78005;SDS011;67211;42.146;24.756;2023-04-03T04:00:52;11.32;;;4.75;;
78005;SDS011;67211;42.146;24.756;2023-04-03T04:03:17;8.20;;;4.50;;
78005;SDS011;67211;42.146;24.756;2023-04-03T04:05:43;13.68;;;6.05;;
78005;SDS011;67211;42.146;24.756;2023-04-03T04:08:09;8.70;;;6.38;;
78005;SDS011;67211;42.146;24.756;2023-04-03T04:10:35;11.85;;;7.50;;
78005;SDS011;67211;42.146;24.756;2023-04-03T04:13:00;12.02;;;5.60;;
78005;SDS011;67211;42.146;24.756;2023-04-03T04:15:26;10.90;;;5.38;;
78005;SDS011;67211;42.146;24.756;2023-04-03T04:17:52;10.15;;;8.35;;
78005;SDS011;67211;42.146;24.756;2023-04-03T04:20:18;9.93;;;6.90;;
78005;SDS011;67211;42.146;24.756;2023-04-03T04:22:43;9.57;;;6.05;;
78005;SDS011;67211;42.146;24.756;2023-04-03T04:25:09;8.77;;;5.97;;
78005;SDS011;67211;42.146;24.756;2023-04-03T04:27:35;13.20;;;6.28;;
78005;SDS011;67211;42.146;24.756;2023-04-03T04:30:02;23.30;;;6.28;;
78005;SDS011;67211;42.146;24.756;2023-04-03T04:32:29;14.27;;;6.07;;
78005;SDS011;67211;42.146;24.756;2023-04-03T04:34:55;9.18;;;5.38;;
78005;SDS011;67211;42.146;24.756;2023-04-03T04:37:20;10.32;;;6.97;;
78005;SDS011;67211;42.146;24.756;2023-04-03T04:39:45;16.80;;;6.20;;
78005;SDS011;67211;42.146;24.756;2023-04-03T04:42:11;19.40;;;8.25;;
78005;SDS011;67211;42.146;24.756;2023-04-03T04:44:38;24.55;;;8.35;;
78005;SDS011;67211;42.146;24.756;2023-04-03T04:47:04;15.32;;;7.80;;
78005;SDS011;67211;42.146;24.756;2023-04-03T04:49:30;12.95;;;7.57;;
78005;SDS011;67211;42.146;24.756;2023-04-03T04:51:55;14.48;;;7.40;;
78005;SDS011;67211;42.146;24.756;2023-04-03T04:54:21;11.63;;;8.13;;
78005;SDS011;67211;42.146;24.756;2023-04-03T04:56:46;15.63;;;7.68;;
78005;SDS011;67211;42.146;24.756;2023-04-03T04:59:12;20.73;;;10.73;;
78005;SDS011;67211;42.146;24.756;2023-04-03T05:01:37;18.48;;;9.38;;
78005;SDS011;67211;42.146;24.756;2023-04-03T05:04:03;18.35;;;9.73;;
78005;SDS011;67211;42.146;24.756;2023-04-03T05:06:28;21.95;;;10.75;;
78005;SDS011;67211;42.146;24.756;2023-04-03T05:08:55;18.85;;;11.68;;
78005;SDS011;67211;42.146;24.756;2023-04-03T05:11:20;18.73;;;12.63;;
78005;SDS011;67211;42.146;24.756;2023-04-03T05:13:46;17.13;;;11.95;;
78005;SDS011;67211;42.146;24.756;2023-04-03T05:16:12;17.48;;;11.07;;
78005;SDS011;67211;42.146;24.756;2023-04-03T05:18:37;16.27;;;9.23;;
78005;SDS011;67211;42.146;24.756;2023-04-03T05:21:03;15.73;;;11.07;;
78005;SDS011;67211;42.146;24.756;2023-04-03T05:23:28;18.85;;;12.05;;
78005;SDS011;67211;42.146;24.756;2023-04-03T05:25:54;18.83;;;10.00;;
78005;SDS011;67211;42.146;24.756;2023-04-03T05:28:19;15.55;;;9.43;;
78005;SDS011;67211;42.146;24.756;2023-04-03T05:30:44;11.85;;;10.00;;
78005;SDS011;67211;42.146;24.756;2023-04-03T05:33:10;15.32;;;8.70;;
78005;SDS011;67211;42.146;24.756;2023-04-03T05:35:36;14.45;;;9.05;;
78005;SDS011;67211;42.146;24.756;2023-04-03T05:38:05;11.05;;;7.60;;
78005;SDS011;67211;42.146;24.756;2023-04-03T05:40:30;13.38;;;8.18;;
78005;SDS011;67211;42.146;24.756;2023-04-03T05:42:56;12.52;;;8.68;;
78005;SDS011;67211;42.146;24.756;2023-04-03T05:45:22;12.90;;;8.98;;
78005;SDS011;67211;42.146;24.756;2023-04-03T05:47:47;10.98;;;8.23;;
78005;SDS011;67211;42.146;24.756;2023-04-03T05:50:13;10.55;;;7.68;;
78005;SDS011;67211;42.146;24.756;2023-04-03T05:52:40;14.55;;;8.45;;
78005;SDS011;67211;42.146;24.756;2023-04-03T05:55:08;13.20;;;7.75;;
78005;SDS011;67211;42.146;24.756;2023-04-03T05:57:33;14.68;;;8.55;;
78005;SDS011;67211;42.146;24.756;2023-04-03T05:59:59;14.00;;;9.68;;
78005;SDS011;67211;42.146;24.756;2023-04-03T06:02:24;13.80;;;8.85;;
78005;SDS011;67211;42.146;24.756;2023-04-03T06:04:51;11.55;;;8.10;;
78005;SDS011;67211;42.146;24.756;2023-04-03T06:07:20;10.63;;;8.68;;
78005;SDS011;67211;42.146;24.756;2023-04-03T06:09:48;13.77;;;6.72;;
78005;SDS011;67211;42.146;24.756;2023-04-03T06:12:14;21.55;;;9.18;;
78005;SDS011;67211;42.146;24.756;2023-04-03T06:14:39;16.02;;;9.27;;
78005;SDS011;67211;42.146;24.756;2023-04-03T06:17:06;14.82;;;9.57;;
78005;SDS011;67211;42.146;24.756;2023-04-03T06:19:32;19.92;;;11.70;;
78005;SDS011;67211;42.146;24.756;2023-04-03T06:21:57;14.48;;;8.45;;
78005;SDS011;67211;42.146;24.756;2023-04-03T06:24:23;17.70;;;9.35;;
78005;SDS011;67211;42.146;24.756;2023-04-03T06:26:50;15.18;;;11.15;;
78005;SDS011;67211;42.146;24.756;2023-04-03T06:29:16;24.10;;;12.13;;
78005;SDS011;67211;42.146;24.756;2023-04-03T06:31:42;21.50;;;13.05;;
78005;SDS011;67211;42.146;24.756;2023-04-03T06:34:08;15.13;;;11.18;;
78005;SDS011;67211;42.146;24.756;2023-04-03T06:36:34;15.90;;;8.50;;
78005;SDS011;67211;42.146;24.756;2023-04-03T06:38:59;19.80;;;9.82;;
78005;SDS011;67211;42.146;24.756;2023-04-03T06:41:25;19.02;;;9.50;;
78005;SDS011;67211;42.146;24.756;2023-04-03T06:43:51;13.88;;;9.52;;
78005;SDS011;67211;42.146;24.756;2023-04-03T06:46:18;13.68;;;9.07;;
78005;SDS011;67211;42.146;24.756;2023-04-03T06:48:45;10.98;;;8.18;;
78005;SDS011;67211;42.146;24.756;2023-04-03T06:51:14;13.32;;;6.93;;
78005;SDS011;67211;42.146;24.756;2023-04-03T06:53:44;8.45;;;5.45;;
78005;SDS011;67211;42.146;24.756;2023-04-03T06:56:10;7.45;;;5.57;;
78005;SDS011;67211;42.146;24.756;2023-04-03T06:58:36;8.25;;;5.60;;
78005;SDS011;67211;42.146;24.756;2023-04-03T07:01:02;8.85;;;5.50;;
78005;SDS011;67211;42.146;24.756;2023-04-03T07:03:27;6.65;;;5.00;;
78005;SDS011;67211;42.146;24.756;2023-04-03T07:05:53;8.95;;;7.00;;
78005;SDS011;67211;42.146;24.756;2023-04-03T07:08:18;8.25;;;5.88;;
78005;SDS011;67211;42.146;24.756;2023-04-03T07:10:44;11.00;;;6.00;;
78005;SDS011;67211;42.146;24.756;2023-04-03T07:13:09;8.10;;;5.05;;
78005;SDS011;67211;42.146;24.756;2023-04-03T07:15:35;8.50;;;4.85;;
78005;SDS011;67211;42.146;24.756;2023-04-03T07:18:01;7.38;;;4.63;;
78005;SDS011;67211;42.146;24.756;2023-04-03T07:20:27;7.05;;;5.22;;
78005;SDS011;67211;42.146;24.756;2023-04-03T07:22:53;6.20;;;4.57;;
78005;SDS011;67211;42.146;24.756;2023-04-03T07:25:18;6.25;;;4.65;;
78005;SDS011;67211;42.146;24.756;2023-04-03T07:27:43;7.25;;;3.75;;
78005;SDS011;67211;42.146;24.756;2023-04-03T07:30:09;4.97;;;4.38;;
78005;SDS011;67211;42.146;24.756;2023-04-03T07:32:35;4.80;;;4.25;;
78005;SDS011;67211;42.146;24.756;2023-04-03T07:35:00;7.88;;;4.05;;
78005;SDS011;67211;42.146;24.756;2023-04-03T07:37:26;5.28;;;4.07;;
78005;SDS011;67211;42.146;24.756;2023-04-03T07:39:51;4.85;;;4.30;;
78005;SDS011;67211;42.146;24.756;2023-04-03T07:42:17;7.22;;;4.85;;
78005;SDS011;67211;42.146;24.756;2023-04-03T07:44:42;5.55;;;4.13;;
78005;SDS011;67211;42.146;24.756;2023-04-03T07:47:08;6.72;;;4.20;;
78005;SDS011;67211;42.146;24.756;2023-04-03T07:49:33;6.57;;;3.20;;
78005;SDS011;67211;42.146;24.756;2023-04-03T07:52:02;6.05;;;4.97;;
78005;SDS011;67211;42.146;24.756;2023-04-03T07:54:29;7.88;;;3.60;;
78005;SDS011;67211;42.146;24.756;2023-04-03T07:56:56;6.60;;;4.72;;
78005;SDS011;67211;42.146;24.756;2023-04-03T07:59:22;7.85;;;4.10;;
78005;SDS011;67211;42.146;24.756;2023-04-03T08:01:47;7.40;;;4.25;;
78005;SDS011;67211;42.146;24.756;2023-04-03T08:04:12;5.65;;;4.53;;
78005;SDS011;67211;42.146;24.756;2023-04-03T08:06:38;5.28;;;4.05;;
78005;SDS011;67211;42.146;24.756;2023-04-03T08:09:04;6.85;;;4.22;;
78005;SDS011;67211;42.146;24.756;2023-04-03T08:11:29;6.93;;;4.18;;
78005;SDS011;67211;42.146;24.756;2023-04-03T08:13:55;7.45;;;4.22;;
78005;SDS011;67211;42.146;24.756;2023-04-03T08:16:22;7.95;;;4.65;;
78005;SDS011;67211;42.146;24.756;2023-04-03T08:18:50;10.77;;;6.03;;
78005;SDS011;67211;42.146;24.756;2023-04-03T08:21:15;13.50;;;7.03;;
78005;SDS011;67211;42.146;24.756;2023-04-03T08:23:41;13.23;;;7.15;;
78005;SDS011;67211;42.146;24.756;2023-04-03T08:26:17;13.18;;;7.95;;
78005;SDS011;67211;42.146;24.756;2023-04-03T08:28:46;13.68;;;8.15;;
78005;SDS011;67211;42.146;24.756;2023-04-03T08:31:13;12.77;;;8.15;;
78005;SDS011;67211;42.146;24.756;2023-04-03T08:33:42;12.15;;;8.75;;
78005;SDS011;67211;42.146;24.756;2023-04-03T08:36:14;13.73;;;7.60;;
78005;SDS011;67211;42.146;24.756;2023-04-03T08:38:42;8.52;;;6.82;;
78005;SDS011;67211;42.146;24.756;2023-04-03T08:41:13;11.68;;;6.63;;
78005;SDS011;67211;42.146;24.756;2023-04-03T08:46:22;9.32;;;5.82;;
78005;SDS011;67211;42.146;24.756;2023-04-03T08:48:51;7.30;;;5.70;;
78005;SDS011;67211;42.146;24.756;2023-04-03T08:51:18;8.05;;;6.00;;
78005;SDS011;67211;42.146;24.756;2023-04-03T08:53:48;5.75;;;4.80;;
78005;SDS011;67211;42.146;24.756;2023-04-03T08:56:19;8.25;;;4.60;;
78005;SDS011;67211;42.146;24.756;2023-04-03T08:58:47;6.85;;;4.00;;
78005;SDS011;67211;42.146;24.756;2023-04-03T09:01:33;5.90;;;3.92;;
78005;SDS011;67211;42.146;24.756;2023-04-03T09:04:05;7.70;;;4.53;;
78005;SDS011;67211;42.146;24.756;2023-04-03T09:06:35;8.10;;;5.57;;
78005;SDS011;67211;42.146;24.756;2023-04-03T09:14:19;5.13;;;4.63;;
78005;SDS011;67211;42.146;24.756;2023-04-03T09:19:56;9.43;;;5.32;;
78005;SDS011;67211;42.146;24.756;2023-04-03T09:22:31;8.55;;;4.60;;
78005;SDS011;67211;42.146;24.756;2023-04-03T09:27:39;5.65;;;4.38;;
78005;SDS011;67211;42.146;24.756;2023-04-03T09:30:04;6.00;;;3.72;;
78005;SDS011;67211;42.146;24.756;2023-04-03T09:32:33;5.15;;;3.50;;
78005;SDS011;67211;42.146;24.756;2023-04-03T09:35:17;5.85;;;2.80;;
78005;SDS011;67211;42.146;24.756;2023-04-03T09:38:28;5.03;;;4.22;;
78005;SDS011;67211;42.146;24.756;2023-04-03T09:40:38;4.85;;;3.50;;
78005;SDS011;67211;42.146;24.756;2023-04-03T09:45:42;5.68;;;4.30;;
78005;SDS011;67211;42.146;24.756;2023-04-03T09:48:15;8.20;;;3.83;;
78005;SDS011;67211;42.146;24.756;2023-04-03T09:56:04;4.13;;;3.67;;
78005;SDS011;67211;42.146;24.756;2023-04-03T10:01:26;4.55;;;3.53;;
78005;SDS011;67211;42.146;24.756;2023-04-03T10:09:27;4.75;;;4.10;;
78005;SDS011;67211;42.146;24.756;2023-04-03T10:12:08;5.07;;;3.65;;
78005;SDS011;67211;42.146;24.756;2023-04-03T10:26:08;5.55;;;4.45;;
78005;SDS011;67211;42.146;24.756;2023-04-03T10:36:44;8.20;;;4.65;;
78005;SDS011;67211;42.146;24.756;2023-04-03T10:50:39;6.78;;;5.28;;
78005;SDS011;67211;42.146;24.756;2023-04-03T10:56:12;5.65;;;4.68;;
78005;SDS011;67211;42.146;24.756;2023-04-03T10:58:44;7.53;;;4.57;;
78005;SDS011;67211;42.146;24.756;2023-04-03T11:01:20;7.25;;;5.47;;
78005;SDS011;67211;42.146;24.756;2023-04-03T11:03:54;6.55;;;5.20;;
78005;SDS011;67211;42.146;24.756;2023-04-03T11:06:23;7.78;;;5.68;;
78005;SDS011;67211;42.146;24.756;2023-04-03T11:09:02;6.30;;;5.00;;
78005;SDS011;67211;42.146;24.756;2023-04-03T11:11:35;6.72;;;4.97;;
78005;SDS011;67211;42.146;24.756;2023-04-03T11:14:09;6.40;;;4.82;;
78005;SDS011;67211;42.146;24.756;2023-04-03T11:16:40;6.35;;;5.00;;
78005;SDS011;67211;42.146;24.756;2023-04-03T11:19:36;5.88;;;4.18;;
78005;SDS011;67211;42.146;24.756;2023-04-03T11:22:22;5.05;;;4.07;;
78005;SDS011;67211;42.146;24.756;2023-04-03T11:24:55;5.15;;;3.70;;
78005;SDS011;67211;42.146;24.756;2023-04-03T11:27:24;5.20;;;3.53;;
78005;SDS011;67211;42.146;24.756;2023-04-03T11:29:51;6.10;;;4.35;;
78005;SDS011;67211;42.146;24.756;2023-04-03T11:35:23;6.53;;;5.35;;
78005;SDS011;67211;42.146;24.756;2023-04-03T11:37:50;7.47;;;4.90;;
78005;SDS011;67211;42.146;24.756;2023-04-03T11:40:19;7.68;;;4.88;;
78005;SDS011;67211;42.146;24.756;2023-04-03T11:42:52;6.38;;;5.30;;
78005;SDS011;67211;42.146;24.756;2023-04-03T11:47:55;6.88;;;5.72;;
78005;SDS011;67211;42.146;24.756;2023-04-03T11:53:00;10.98;;;6.50;;
78005;SDS011;67211;42.146;24.756;2023-04-03T12:16:30;10.10;;;7.00;;
78005;SDS011;67211;42.146;24.756;2023-04-03T12:19:03;26.45;;;18.95;;
78005;SDS011;67211;42.146;24.756;2023-04-03T12:24:36;17.45;;;13.18;;
78005;SDS011;67211;42.146;24.756;2023-04-03T12:27:23;13.90;;;9.57;;
78005;SDS011;67211;42.146;24.756;2023-04-03T12:29:52;13.52;;;10.35;;
78005;SDS011;67211;42.146;24.756;2023-04-03T12:37:44;14.63;;;9.23;;
78005;SDS011;67211;42.146;24.756;2023-04-03T12:48:38;17.75;;;11.00;;
78005;SDS011;67211;42.146;24.756;2023-04-03T12:51:16;9.85;;;6.30;;
78005;SDS011;67211;42.146;24.756;2023-04-03T12:53:45;10.82;;;8.15;;
78005;SDS011;67211;42.146;24.756;2023-04-03T12:58:53;9.98;;;8.10;;
78005;SDS011;67211;42.146;24.756;2023-04-03T13:01:23;9.88;;;8.10;;
78005;SDS011;67211;42.146;24.756;2023-04-03T13:03:52;11.43;;;6.90;;
78005;SDS011;67211;42.146;24.756;2023-04-03T13:06:21;9.35;;;7.78;;
78005;SDS011;67211;42.146;24.756;2023-04-03T13:08:52;7.60;;;6.85;;
78005;SDS011;67211;42.146;24.756;2023-04-03T13:11:23;7.65;;;6.07;;
78005;SDS011;67211;42.146;24.756;2023-04-03T13:13:55;8.65;;;7.45;;
78005;SDS011;67211;42.146;24.756;2023-04-03T13:16:21;11.20;;;8.52;;
78005;SDS011;67211;42.146;24.756;2023-04-03T13:18:50;16.08;;;11.65;;
78005;SDS011;67211;42.146;24.756;2023-04-03T13:21:18;19.33;;;11.35;;
78005;SDS011;67211;42.146;24.756;2023-04-03T13:23:47;15.48;;;9.52;;
78005;SDS011;67211;42.146;24.756;2023-04-03T13:26:18;14.98;;;9.23;;
78005;SDS011;67211;42.146;24.756;2023-04-03T13:28:45;7.97;;;6.53;;
78005;SDS011;67211;42.146;24.756;2023-04-03T13:36:30;10.90;;;9.05;;
78005;SDS011;67211;42.146;24.756;2023-04-03T13:39:00;10.30;;;7.72;;
78005;SDS011;67211;42.146;24.756;2023-04-03T13:41:35;8.70;;;7.45;;
78005;SDS011;67211;42.146;24.756;2023-04-03T13:44:25;9.32;;;7.68;;
78005;SDS011;67211;42.146;24.756;2023-04-03T13:46:59;9.15;;;8.25;;
78005;SDS011;67211;42.146;24.756;2023-04-03T13:49:45;10.45;;;8.35;;
78005;SDS011;67211;42.146;24.756;2023-04-03T13:52:28;12.18;;;9.18;;
78005;SDS011;67211;42.146;24.756;2023-04-03T13:55:51;12.43;;;9.88;;
78005;SDS011;67211;42.146;24.756;2023-04-03T13:58:21;11.63;;;9.68;;
78005;SDS011;67211;42.146;24.756;2023-04-03T14:00:49;15.43;;;10.82;;
78005;SDS011;67211;42.146;24.756;2023-04-03T14:06:17;74.50;;;53.38;;
78005;SDS011;67211;42.146;24.756;2023-04-03T14:08:44;47.47;;;31.25;;
78005;SDS011;67211;42.146;24.756;2023-04-03T14:11:18;17.83;;;15.02;;
78005;SDS011;67211;42.146;24.756;2023-04-03T14:13:46;12.07;;;10.55;;
78005;SDS011;67211;42.146;24.756;2023-04-03T14:16:17;10.52;;;9.00;;
78005;SDS011;67211;42.146;24.756;2023-04-03T14:18:44;10.27;;;8.02;;
78005;SDS011;67211;42.146;24.756;2023-04-03T14:21:11;11.80;;;9.52;;
78005;SDS011;67211;42.146;24.756;2023-04-03T14:23:38;10.60;;;9.13;;
78005;SDS011;67211;42.146;24.756;2023-04-03T14:26:07;11.85;;;8.80;;
78005;SDS011;67211;42.146;24.756;2023-04-03T14:28:37;10.20;;;8.38;;
78005;SDS011;67211;42.146;24.756;2023-04-03T14:31:05;14.32;;;11.82;;
78005;SDS011;67211;42.146;24.756;2023-04-03T14:33:30;13.38;;;11.75;;
78005;SDS011;67211;42.146;24.756;2023-04-03T14:35:59;10.90;;;9.50;;
78005;SDS011;67211;42.146;24.756;2023-04-03T14:38:28;12.80;;;9.88;;
78005;SDS011;67211;42.146;24.756;2023-04-03T14:40:55;12.07;;;9.50;;
78005;SDS011;67211;42.146;24.756;2023-04-03T14:43:21;10.43;;;8.10;;
78005;SDS011;67211;42.146;24.756;2023-04-03T14:45:47;10.20;;;9.00;;
78005;SDS011;67211;42.146;24.756;2023-04-03T14:48:21;10.85;;;9.73;;
78005;SDS011;67211;42.146;24.756;2023-04-03T14:50:49;11.55;;;10.20;;
78005;SDS011;67211;42.146;24.756;2023-04-03T14:53:16;12.27;;;9.88;;
78005;SDS011;67211;42.146;24.756;2023-04-03T14:55:43;13.00;;;8.68;;
78005;SDS011;67211;42.146;24.756;2023-04-03T14:58:18;11.63;;;9.48;;
78005;SDS011;67211;42.146;24.756;2023-04-03T15:00:44;14.07;;;11.60;;
78005;SDS011;67211;42.146;24.756;2023-04-03T15:03:14;14.65;;;13.00;;
78005;SDS011;67211;42.146;24.756;2023-04-03T15:05:41;15.15;;;11.60;;
78005;SDS011;67211;42.146;24.756;2023-04-03T15:11:02;13.45;;;12.05;;
78005;SDS011;67211;42.146;24.756;2023-04-03T15:13:27;12.32;;;10.02;;
78005;SDS011;67211;42.146;24.756;2023-04-03T15:15:53;20.35;;;13.88;;
78005;SDS011;67211;42.146;24.756;2023-04-03T15:18:19;16.30;;;11.20;;
78005;SDS011;67211;42.146;24.756;2023-04-03T15:20:47;17.02;;;13.95;;
78005;SDS011;67211;42.146;24.756;2023-04-03T15:23:13;20.83;;;14.60;;
78005;SDS011;67211;42.146;24.756;2023-04-03T15:25:40;20.42;;;14.57;;
78005;SDS011;67211;42.146;24.756;2023-04-03T15:28:16;22.60;;;16.25;;
78005;SDS011;67211;42.146;24.756;2023-04-03T15:30:44;21.27;;;15.70;;
78005;SDS011;67211;42.146;24.756;2023-04-03T15:33:09;22.35;;;16.35;;
78005;SDS011;67211;42.146;24.756;2023-04-03T15:35:35;20.40;;;13.27;;
78005;SDS011;67211;42.146;24.756;2023-04-03T15:38:00;22.38;;;14.35;;
78005;SDS011;67211;42.146;24.756;2023-04-03T15:40:26;18.67;;;13.32;;
78005;SDS011;67211;42.146;24.756;2023-04-03T15:42:51;19.75;;;13.93;;
78005;SDS011;67211;42.146;24.756;2023-04-03T15:45:17;24.77;;;14.63;;
78005;SDS011;67211;42.146;24.756;2023-04-03T15:47:42;26.13;;;13.65;;
78005;SDS011;67211;42.146;24.756;2023-04-03T15:50:08;14.77;;;10.88;;
78005;SDS011;67211;42.146;24.756;2023-04-03T15:52:34;11.63;;;7.97;;
78005;SDS011;67211;42.146;24.756;2023-04-03T15:55:00;26.48;;;15.23;;
78005;SDS011;67211;42.146;24.756;2023-04-03T15:57:25;15.07;;;7.70;;
78005;SDS011;67211;42.146;24.756;2023-04-03T15:59:51;21.50;;;16.05;;
78005;SDS011;67211;42.146;24.756;2023-04-03T16:02:17;11.52;;;10.07;;
78005;SDS011;67211;42.146;24.756;2023-04-03T16:04:42;12.68;;;9.13;;
78005;SDS011;67211;42.146;24.756;2023-04-03T16:07:08;11.50;;;7.82;;
78005;SDS011;67211;42.146;24.756;2023-04-03T16:09:33;12.38;;;10.35;;
78005;SDS011;67211;42.146;24.756;2023-04-03T16:12:05;16.25;;;10.38;;
78005;SDS011;67211;42.146;24.756;2023-04-03T16:14:31;13.45;;;8.75;;
78005;SDS011;67211;42.146;24.756;2023-04-03T16:16:56;13.63;;;9.38;;
78005;SDS011;67211;42.146;24.756;2023-04-03T16:19:23;13.95;;;11.90;;
78005;SDS011;67211;42.146;24.756;2023-04-03T16:21:48;17.10;;;11.30;;
78005;SDS011;67211;42.146;24.756;2023-04-03T16:24:14;16.23;;;9.73;;
78005;SDS011;67211;42.146;24.756;2023-04-03T16:26:40;15.20;;;11.13;;
78005;SDS011;67211;42.146;24.756;2023-04-03T16:29:05;30.23;;;19.50;;
78005;SDS011;67211;42.146;24.756;2023-04-03T16:31:31;32.75;;;21.65;;
78005;SDS011;67211;42.146;24.756;2023-04-03T16:33:57;29.45;;;21.52;;
78005;SDS011;67211;42.146;24.756;2023-04-03T16:36:23;28.45;;;18.27;;
78005;SDS011;67211;42.146;24.756;2023-04-03T16:38:50;23.15;;;15.20;;
78005;SDS011;67211;42.146;24.756;2023-04-03T16:41:15;25.48;;;19.17;;
78005;SDS011;67211;42.146;24.756;2023-04-03T16:43:41;27.65;;;19.25;;